Time;durP1;ratioP1;P1;durP2;ratioP2;P2;SDS_P1;SDS_P2;PMS_P1;PMS_P2;Temp;Humidity;BMP_temperature;BMP_pressure;BME280_temperature;BME280_humidity;BME280_pressure;Samples;Min_cycle;Max_cycle;Signal;HPM_P1;HPM_P2
2023/04/15 00:00:02;;;;;;;1.23;0.95;;;9.10;99.90;;;;;;4403629;32;20082;-76
2023/04/15 00:02:28;;;;;;;0.85;0.60;;;9.10;99.90;;;;;;4403314;32;20125;-77
2023/04/15 00:04:53;;;;;;;2.60;0.85;;;9.10;99.90;;;;;;4403101;32;20104;-77
2023/04/15 00:07:19;;;;;;;2.95;0.98;;;9.00;99.90;;;;;;4402762;32;20566;-77
2023/04/15 00:09:44;;;;;;;2.55;0.82;;;9.00;99.90;;;;;;4404812;32;20070;-76
2023/04/15 00:12:11;;;;;;;0.40;0.40;;;9.10;99.90;;;;;;4397331;32;20192;-76
2023/04/15 00:14:36;;;;;;;2.00;1.10;;;9.10;99.90;;;;;;4401268;32;20109;-76
2023/04/15 00:17:03;;;;;;;0.90;0.75;;;9.20;99.90;;;;;;4402108;32;20093;-77
2023/04/15 00:19:29;;;;;;;2.00;1.00;;;9.20;99.90;;;;;;4400537;32;20066;-76
2023/04/15 00:21:56;;;;;;;1.50;0.82;;;9.20;99.90;;;;;;4401621;32;20081;-76
2023/04/15 00:24:22;;;;;;;1.42;0.77;;;9.10;99.90;;;;;;4401174;32;20540;-76
2023/04/15 00:26:47;;;;;;;3.30;1.17;;;9.10;99.90;;;;;;4402671;32;20066;-76
2023/04/15 00:29:14;;;;;;;4.12;1.48;;;9.10;99.90;;;;;;4399144;32;20197;-75
2023/04/15 00:31:39;;;;;;;0.52;0.52;;;9.10;99.90;;;;;;4400928;32;20430;-76
2023/04/15 00:34:05;;;;;;;1.08;0.90;;;9.00;99.90;;;;;;4401067;32;20105;-76
2023/04/15 00:36:30;;;;;;;1.35;1.23;;;9.10;99.90;;;;;;4401762;32;20063;-75
2023/04/15 00:38:56;;;;;;;0.43;0.43;;;9.00;99.90;;;;;;4401768;32;20066;-76
2023/04/15 00:41:22;;;;;;;1.40;1.08;;;9.00;99.90;;;;;;4402141;32;20556;-76
2023/04/15 00:43:47;;;;;;;1.05;0.73;;;9.00;99.90;;;;;;4403889;32;20072;-76
2023/04/15 00:46:16;;;;;;;1.95;1.00;;;9.10;99.90;;;;;;4399272;32;20510;-76
2023/04/15 00:48:42;;;;;;;0.60;0.60;;;9.10;99.90;;;;;;4402166;32;20499;-76
2023/04/15 00:51:08;;;;;;;1.23;0.85;;;9.20;99.90;;;;;;4399631;32;20107;-76
2023/04/15 00:53:34;;;;;;;5.82;1.10;;;9.10;99.90;;;;;;4398950;32;20090;-76
2023/04/15 00:55:59;;;;;;;1.67;1.15;;;9.10;99.90;;;;;;4402833;32;20082;-76
2023/04/15 00:58:26;;;;;;;5.50;1.92;;;9.10;99.90;;;;;;4402041;32;20078;-76
2023/04/15 01:00:53;;;;;;;5.03;1.55;;;9.10;99.90;;;;;;4401326;32;20600;-76
2023/04/15 01:03:19;;;;;;;2.00;1.12;;;9.10;99.90;;;;;;4402390;32;20093;-76
2023/04/15 01:05:45;;;;;;;0.80;0.80;;;9.20;99.90;;;;;;4402607;32;20493;-75
2023/04/15 01:08:11;;;;;;;1.65;0.73;;;9.10;99.90;;;;;;4398944;32;20082;-77
2023/04/15 01:10:37;;;;;;;3.47;1.15;;;9.00;99.90;;;;;;4400014;32;20541;-75
2023/04/15 01:13:03;;;;;;;4.28;1.98;;;9.10;99.90;;;;;;4400826;32;20180;-76
2023/04/15 01:15:28;;;;;;;6.40;1.20;;;9.00;99.90;;;;;;4401126;32;20581;-77
2023/04/15 01:17:54;;;;;;;1.55;0.90;;;9.00;99.90;;;;;;4401171;32;20382;-76
2023/04/15 01:20:21;;;;;;;0.90;0.90;;;9.10;99.90;;;;;;4400802;32;20090;-75
2023/04/15 01:22:47;;;;;;;2.22;0.82;;;9.20;99.90;;;;;;4404331;32;20526;-76
2023/04/15 01:25:17;;;;;;;3.55;0.93;;;9.10;99.90;;;;;;4401501;32;20159;-75
2023/04/15 01:27:43;;;;;;;1.37;1.12;;;9.10;99.90;;;;;;4400514;32;20082;-76
2023/04/15 01:30:10;;;;;;;1.50;1.15;;;9.10;99.90;;;;;;4399235;32;20506;-76
2023/04/15 01:32:36;;;;;;;1.17;1.00;;;9.00;99.90;;;;;;4400808;32;20524;-76
2023/04/15 01:35:02;;;;;;;1.67;1.27;;;9.00;99.90;;;;;;4400220;32;20077;-76
2023/04/15 01:37:28;;;;;;;1.37;0.93;;;9.00;99.90;;;;;;4400181;32;20487;-75
2023/04/15 01:39:53;;;;;;;1.12;1.00;;;9.10;99.90;;;;;;4398549;32;20089;-75
2023/04/15 01:42:20;;;;;;;1.60;1.08;;;9.10;99.90;;;;;;4400243;32;20418;-76
2023/04/15 01:44:46;;;;;;;3.65;1.58;;;9.10;99.90;;;;;;4401697;32;21060;-75
2023/04/15 01:47:12;;;;;;;0.60;0.60;;;9.10;99.90;;;;;;4400576;32;20086;-76
2023/04/15 01:49:37;;;;;;;3.85;1.50;;;9.10;99.90;;;;;;4404000;32;20081;-75
2023/04/15 01:52:03;;;;;;;1.05;0.95;;;9.10;99.90;;;;;;4400419;32;20584;-77
2023/04/15 01:54:28;;;;;;;1.35;1.25;;;9.10;99.90;;;;;;4398149;32;20085;-76
2023/04/15 01:56:53;;;;;;;4.18;1.00;;;9.10;99.90;;;;;;4399224;32;20157;-75
2023/04/15 01:59:20;;;;;;;0.93;0.88;;;9.10;99.90;;;;;;4401111;32;20110;-76
2023/04/15 02:01:46;;;;;;;2.30;1.85;;;9.10;99.90;;;;;;4401133;32;21277;-76
2023/04/15 02:04:15;;;;;;;2.15;1.60;;;9.10;99.90;;;;;;4399437;32;20086;-77
2023/04/15 02:06:42;;;;;;;3.70;1.20;;;9.00;99.90;;;;;;4401942;32;20086;-75
2023/04/15 02:09:08;;;;;;;1.77;1.35;;;9.00;99.90;;;;;;4398342;32;20087;-77
2023/04/15 02:11:34;;;;;;;4.30;1.65;;;9.10;99.90;;;;;;4401612;32;20089;-76
2023/04/15 02:14:00;;;;;;;3.33;1.30;;;9.00;99.90;;;;;;4398878;32;20069;-76
2023/04/15 02:16:25;;;;;;;1.58;1.48;;;9.10;99.90;;;;;;4400318;32;20507;-76
2023/04/15 02:18:51;;;;;;;0.95;0.90;;;9.10;99.90;;;;;;4399988;32;20172;-75
2023/04/15 02:21:17;;;;;;;1.95;1.25;;;9.10;99.90;;;;;;4404348;32;20093;-76
2023/04/15 02:23:43;;;;;;;1.75;0.95;;;9.00;99.90;;;;;;4399756;32;20073;-77
2023/04/15 02:26:08;;;;;;;1.10;0.85;;;9.00;99.90;;;;;;4402131;32;20141;-77
2023/04/15 02:28:34;;;;;;;3.05;1.65;;;9.00;99.90;;;;;;4403673;32;20093;-77
2023/04/15 02:31:04;;;;;;;1.33;1.17;;;9.00;99.90;;;;;;4401862;32;20796;-77
2023/04/15 02:33:31;;;;;;;10.73;3.08;;;9.00;99.90;;;;;;4401088;32;20106;-77
2023/04/15 02:35:56;;;;;;;2.28;1.52;;;9.00;99.90;;;;;;4405214;32;20061;-76
2023/04/15 02:38:22;;;;;;;1.10;1.00;;;9.00;99.90;;;;;;4404121;32;20196;-76
2023/04/15 02:40:49;;;;;;;1.62;0.82;;;9.00;99.90;;;;;;4403575;32;20573;-76
2023/04/15 02:43:16;;;;;;;7.53;0.93;;;9.00;99.90;;;;;;4403899;32;20077;-76
2023/04/15 02:45:42;;;;;;;0.55;0.55;;;9.00;99.90;;;;;;4405369;32;20134;-77
2023/04/15 02:48:08;;;;;;;4.43;2.40;;;8.90;99.90;;;;;;4402063;32;20089;-77
2023/04/15 02:50:34;;;;;;;2.65;1.15;;;8.90;99.90;;;;;;4403628;32;20069;-77
2023/04/15 02:53:00;;;;;;;5.85;1.48;;;8.90;99.90;;;;;;4402481;32;20105;-76
2023/04/15 02:55:26;;;;;;;0.70;0.70;;;9.00;99.90;;;;;;4403643;32;20100;-77
2023/04/15 02:57:51;;;;;;;2.05;1.02;;;8.90;99.90;;;;;;4402067;32;20440;-76
2023/04/15 03:00:17;;;;;;;3.10;1.10;;;8.90;99.90;;;;;;4405179;32;20097;-76
2023/04/15 03:02:44;;;;;;;0.77;0.77;;;8.90;99.90;;;;;;4404273;32;20529;-76
2023/04/15 03:05:12;;;;;;;5.87;1.62;;;9.00;99.90;;;;;;4404277;32;20522;-76
2023/04/15 03:07:39;;;;;;;3.60;0.70;;;9.00;99.90;;;;;;4405253;32;20467;-76
2023/04/15 03:10:05;;;;;;;4.37;1.42;;;9.10;99.90;;;;;;4401013;32;20174;-76
2023/04/15 03:12:30;;;;;;;1.10;0.98;;;9.10;99.90;;;;;;4401644;32;20093;-76
2023/04/15 03:14:56;;;;;;;5.35;1.65;;;9.10;99.90;;;;;;4403628;32;20082;-76
2023/04/15 03:17:21;;;;;;;1.67;1.17;;;9.10;99.90;;;;;;4405631;32;20074;-77
2023/04/15 03:19:47;;;;;;;1.12;0.85;;;9.10;99.90;;;;;;4402763;32;20129;-76
2023/04/15 03:22:12;;;;;;;1.67;1.20;;;9.10;99.90;;;;;;4402010;32;20814;-76
2023/04/15 03:24:38;;;;;;;0.98;0.93;;;9.10;99.90;;;;;;4400145;32;20079;-77
2023/04/15 03:27:05;;;;;;;35.63;1.45;;;9.10;99.90;;;;;;4400537;32;20062;-76
2023/04/15 03:29:30;;;;;;;1.35;1.25;;;9.10;99.90;;;;;;4402843;32;20097;-76
2023/04/15 03:31:56;;;;;;;1.48;1.20;;;9.20;99.90;;;;;;4400845;32;20151;-76
2023/04/15 03:34:21;;;;;;;4.55;1.40;;;9.20;99.90;;;;;;4400874;32;20121;-76
2023/04/15 03:36:47;;;;;;;2.80;1.48;;;9.20;99.90;;;;;;4404028;32;20087;-77
2023/04/15 03:39:12;;;;;;;1.70;1.17;;;9.20;99.90;;;;;;4403558;32;20505;-77
2023/04/15 03:41:38;;;;;;;0.80;0.80;;;9.30;99.90;;;;;;4400827;32;20135;-77
2023/04/15 03:44:03;;;;;;;2.92;1.17;;;9.30;99.90;;;;;;4401950;32;20062;-76
2023/04/15 03:46:29;;;;;;;1.23;1.05;;;9.20;99.90;;;;;;4401312;32;20131;-77
2023/04/15 03:48:54;;;;;;;3.10;1.35;;;9.20;99.90;;;;;;4401426;32;20069;-76
2023/04/15 03:51:20;;;;;;;6.12;1.20;;;9.20;99.90;;;;;;4400828;32;20415;-77
2023/04/15 03:53:45;;;;;;;0.95;0.95;;;9.20;99.90;;;;;;4400822;32;20086;-77
2023/04/15 03:56:11;;;;;;;0.57;0.57;;;9.20;99.90;;;;;;4400611;32;20084;-77
2023/04/15 03:58:36;;;;;;;0.60;0.60;;;9.20;99.90;;;;;;4404175;32;20595;-76
2023/04/15 04:01:02;;;;;;;0.57;0.57;;;9.20;99.90;;;;;;4401256;32;20078;-76
2023/04/15 04:03:27;;;;;;;1.33;1.23;;;9.20;99.90;;;;;;4404250;32;20395;-77
2023/04/15 04:05:53;;;;;;;5.12;1.17;;;9.30;99.90;;;;;;4401940;32;20077;-76
2023/04/15 04:08:20;;;;;;;5.15;1.58;;;9.20;99.90;;;;;;4399768;32;20079;-77
2023/04/15 04:10:45;;;;;;;1.55;1.00;;;9.30;99.90;;;;;;4401496;32;20507;-76
2023/04/15 04:13:11;;;;;;;4.68;1.42;;;9.30;99.90;;;;;;4397706;32;20066;-77
2023/04/15 04:15:36;;;;;;;1.75;1.15;;;9.30;99.90;;;;;;4404240;32;20066;-76
2023/04/15 04:18:02;;;;;;;1.15;1.00;;;9.20;99.90;;;;;;4402526;32;20102;-76
2023/04/15 04:20:28;;;;;;;1.58;1.17;;;9.20;99.90;;;;;;4401530;32;20121;-76
2023/04/15 04:22:53;;;;;;;3.03;1.40;;;9.20;99.90;;;;;;4401359;32;20106;-76
2023/04/15 04:25:19;;;;;;;1.42;1.08;;;9.30;99.90;;;;;;4403136;32;20143;-76
2023/04/15 04:27:44;;;;;;;1.27;0.90;;;9.30;99.90;;;;;;4399926;32;20529;-76
2023/04/15 04:30:10;;;;;;;1.50;0.98;;;9.30;99.90;;;;;;4401252;32;20132;-77
2023/04/15 04:32:36;;;;;;;1.58;0.90;;;9.30;99.90;;;;;;4397109;32;20070;-77
2023/04/15 04:35:02;;;;;;;1.48;1.35;;;9.30;99.90;;;;;;4401812;32;20137;-76
2023/04/15 04:37:28;;;;;;;1.95;0.95;;;9.30;99.90;;;;;;4399292;32;20557;-78
2023/04/15 04:39:53;;;;;;;2.50;0.95;;;9.40;99.90;;;;;;4399840;32;20077;-76
2023/04/15 04:42:19;;;;;;;1.73;0.93;;;9.40;99.90;;;;;;4400573;32;20074;-77
2023/04/15 04:44:45;;;;;;;1.65;1.00;;;9.30;99.90;;;;;;4402854;32;20090;-77
2023/04/15 04:47:10;;;;;;;0.73;0.73;;;9.30;99.90;;;;;;4401488;32;20124;-77
2023/04/15 04:49:36;;;;;;;1.58;1.05;;;9.40;99.90;;;;;;4401601;32;20179;-76
2023/04/15 04:52:02;;;;;;;2.75;1.23;;;9.40;99.90;;;;;;4401082;32;20082;-76
2023/04/15 04:54:27;;;;;;;0.68;0.68;;;9.30;99.90;;;;;;4402801;32;20086;-76
2023/04/15 04:56:53;;;;;;;3.42;1.10;;;9.30;99.90;;;;;;4405876;32;20509;-77
2023/04/15 04:59:18;;;;;;;6.72;1.25;;;9.40;99.90;;;;;;4399027;32;20549;-76
2023/04/15 05:01:44;;;;;;;0.62;0.62;;;9.50;99.90;;;;;;4400419;32;20140;-76
2023/04/15 05:04:10;;;;;;;2.83;0.95;;;9.50;99.90;;;;;;4400856;32;20089;-76
2023/04/15 05:06:35;;;;;;;6.22;1.52;;;9.40;99.90;;;;;;4402483;32;20636;-76
2023/04/15 05:09:02;;;;;;;2.53;0.93;;;9.40;99.90;;;;;;4399719;32;20225;-76
2023/04/15 05:11:28;;;;;;;3.75;1.83;;;9.40;99.90;;;;;;4399216;32;20058;-76
2023/04/15 05:13:53;;;;;;;1.17;1.08;;;9.50;99.90;;;;;;4402313;32;20121;-76
2023/04/15 05:16:19;;;;;;;3.80;1.50;;;9.50;99.90;;;;;;4399704;32;20138;-76
2023/04/15 05:18:45;;;;;;;0.57;0.57;;;9.50;99.90;;;;;;4401021;32;20078;-76
2023/04/15 05:21:11;;;;;;;1.00;0.98;;;9.50;99.90;;;;;;4400676;32;20102;-77
2023/04/15 05:23:36;;;;;;;3.65;0.98;;;9.50;99.90;;;;;;4400553;32;20087;-76
2023/04/15 05:26:02;;;;;;;3.20;1.12;;;9.60;99.90;;;;;;4399421;32;20085;-75
2023/04/15 05:28:27;;;;;;;4.53;1.27;;;9.60;99.90;;;;;;4402485;32;20333;-76
2023/04/15 05:30:53;;;;;;;1.65;1.00;;;9.50;99.90;;;;;;4402195;32;20070;-75
2023/04/15 05:33:19;;;;;;;2.97;1.15;;;9.60;99.90;;;;;;4404371;32;20066;-76
2023/04/15 05:35:44;;;;;;;0.90;0.90;;;9.60;99.90;;;;;;4401212;32;20065;-75
2023/04/15 05:38:10;;;;;;;0.80;0.80;;;9.50;99.90;;;;;;4402690;32;20105;-76
2023/04/15 05:40:35;;;;;;;0.90;0.90;;;9.60;99.90;;;;;;4401398;32;20065;-76
2023/04/15 05:43:01;;;;;;;3.50;1.35;;;9.50;99.90;;;;;;4402790;32;20492;-77
2023/04/15 05:45:26;;;;;;;2.33;1.52;;;9.60;99.90;;;;;;4399392;32;20458;-76
2023/04/15 05:47:53;;;;;;;2.10;1.55;;;9.60;99.90;;;;;;4400813;32;20093;-77
2023/04/15 05:50:19;;;;;;;0.95;0.82;;;9.70;99.90;;;;;;4401449;32;20074;-76
2023/04/15 05:52:45;;;;;;;0.90;0.85;;;9.70;99.90;;;;;;4401852;32;20078;-76
2023/04/15 05:55:11;;;;;;;0.90;0.90;;;9.80;99.90;;;;;;4401698;32;20073;-77
2023/04/15 05:57:37;;;;;;;1.98;1.42;;;9.80;99.90;;;;;;4406576;32;20096;-77
2023/04/15 06:00:04;;;;;;;0.80;0.80;;;9.80;99.90;;;;;;4404356;32;20086;-76
2023/04/15 06:02:30;;;;;;;1.00;0.90;;;9.80;99.90;;;;;;4404318;32;20066;-76
2023/04/15 06:04:56;;;;;;;1.33;1.23;;;9.90;99.90;;;;;;4401694;32;20086;-77
2023/04/15 06:07:22;;;;;;;1.40;1.15;;;10.00;99.90;;;;;;4404284;32;20062;-77
2023/04/15 06:09:48;;;;;;;0.80;0.73;;;10.00;99.90;;;;;;4402615;32;20102;-76
2023/04/15 06:12:14;;;;;;;1.55;0.90;;;10.10;99.90;;;;;;4402091;32;20133;-76
2023/04/15 06:14:39;;;;;;;1.15;1.05;;;10.10;99.90;;;;;;4403482;32;20174;-77
2023/04/15 06:17:05;;;;;;;1.73;1.00;;;10.10;99.90;;;;;;4402746;32;20073;-76
2023/04/15 06:19:31;;;;;;;3.25;2.08;;;10.10;99.90;;;;;;4402632;32;20098;-76
2023/04/15 06:21:57;;;;;;;1.98;0.77;;;10.10;99.90;;;;;;4402105;32;20483;-76
2023/04/15 06:24:23;;;;;;;1.42;0.90;;;10.10;99.90;;;;;;4401547;32;20122;-77
2023/04/15 06:26:49;;;;;;;1.85;0.88;;;10.10;99.90;;;;;;4403697;32;20090;-76
2023/04/15 06:29:15;;;;;;;0.60;0.60;;;10.20;99.90;;;;;;4402236;32;20086;-76
2023/04/15 06:31:40;;;;;;;1.20;0.62;;;10.20;99.90;;;;;;4402222;32;20447;-76
2023/04/15 06:34:06;;;;;;;1.37;0.98;;;10.20;99.90;;;;;;4402462;32;20541;-77
2023/04/15 06:36:31;;;;;;;0.60;0.60;;;10.20;99.90;;;;;;4401024;32;20522;-76
2023/04/15 06:38:57;;;;;;;4.80;1.55;;;10.20;99.90;;;;;;4402443;32;20565;-76
2023/04/15 06:41:22;;;;;;;0.70;0.70;;;10.30;99.90;;;;;;4402763;32;20078;-76
2023/04/15 06:43:48;;;;;;;1.27;1.02;;;10.30;99.90;;;;;;4401281;32;20149;-77
2023/04/15 06:46:13;;;;;;;1.05;0.93;;;10.30;99.90;;;;;;4403586;32;20062;-76
2023/04/15 06:48:39;;;;;;;1.83;1.42;;;10.40;99.90;;;;;;4403647;32;20086;-76
2023/04/15 06:51:05;;;;;;;1.40;0.90;;;10.50;99.90;;;;;;4403216;32;20079;-77
2023/04/15 06:53:30;;;;;;;4.37;2.37;;;10.50;99.90;;;;;;4404645;32;20510;-77
2023/04/15 06:55:56;;;;;;;1.27;0.93;;;10.60;99.90;;;;;;4402432;32;20082;-78
2023/04/15 06:58:22;;;;;;;0.95;0.73;;;10.60;99.90;;;;;;4404644;32;20152;-76
2023/04/15 07:00:47;;;;;;;0.80;0.80;;;10.70;99.90;;;;;;4402604;32;20066;-76
2023/04/15 07:03:13;;;;;;;6.32;2.12;;;10.70;99.90;;;;;;4401389;32;20516;-76
2023/04/15 07:05:40;;;;;;;0.80;0.80;;;10.80;99.90;;;;;;4403304;32;20082;-77
2023/04/15 07:08:06;;;;;;;3.50;0.82;;;10.80;99.90;;;;;;4405627;32;20538;-76
2023/04/15 07:10:33;;;;;;;0.68;0.68;;;10.80;99.90;;;;;;4401514;32;20087;-76
2023/04/15 07:12:58;;;;;;;3.78;1.10;;;10.80;99.90;;;;;;4401700;32;20176;-77
2023/04/15 07:15:24;;;;;;;1.30;1.17;;;10.90;99.90;;;;;;4403883;32;20510;-76
2023/04/15 07:17:50;;;;;;;1.10;0.70;;;10.90;99.90;;;;;;4402189;32;20074;-76
2023/04/15 07:20:15;;;;;;;1.25;1.15;;;10.90;99.90;;;;;;4402632;32;20117;-76
2023/04/15 07:22:41;;;;;;;6.03;2.05;;;10.90;99.90;;;;;;4401701;32;20789;-76
2023/04/15 07:25:07;;;;;;;0.60;0.60;;;10.90;99.90;;;;;;4403559;32;20577;-76
2023/04/15 07:27:33;;;;;;;1.15;1.00;;;10.90;99.90;;;;;;4404334;32;20063;-77
2023/04/15 07:29:58;;;;;;;1.23;1.12;;;10.80;99.90;;;;;;4401972;32;20119;-77
2023/04/15 07:32:24;;;;;;;1.00;0.95;;;10.80;99.90;;;;;;4403035;32;20147;-77
2023/04/15 07:34:50;;;;;;;1.65;0.88;;;10.70;99.90;;;;;;4402777;32;20102;-77
2023/04/15 07:37:16;;;;;;;1.02;0.50;;;10.60;99.90;;;;;;4401939;32;20074;-76
2023/04/15 07:39:42;;;;;;;0.73;0.70;;;10.60;99.90;;;;;;4402097;32;20090;-77
2023/04/15 07:42:08;;;;;;;1.02;0.80;;;10.60;99.90;;;;;;4402842;32;20066;-77
2023/04/15 07:44:34;;;;;;;0.60;0.60;;;10.60;99.90;;;;;;4402855;32;20431;-76
2023/04/15 07:47:02;;;;;;;0.52;0.52;;;10.60;99.90;;;;;;4403013;32;20077;-76
2023/04/15 07:49:27;;;;;;;4.20;1.35;;;10.50;99.90;;;;;;4401939;32;20098;-78
2023/04/15 07:51:53;;;;;;;0.60;0.60;;;10.60;99.90;;;;;;4401257;32;20074;-76
2023/04/15 07:54:19;;;;;;;0.90;0.62;;;10.60;99.90;;;;;;4402213;32;20431;-77
2023/04/15 07:56:45;;;;;;;0.60;0.60;;;10.60;99.90;;;;;;4404527;32;20070;-77
2023/04/15 07:59:10;;;;;;;1.02;0.85;;;10.60;99.90;;;;;;4401436;32;20065;-77
2023/04/15 08:01:36;;;;;;;0.70;0.70;;;10.70;99.90;;;;;;4401756;32;20102;-77
2023/04/15 08:04:02;;;;;;;0.62;0.57;;;10.60;99.90;;;;;;4400060;32;20148;-77
2023/04/15 08:06:28;;;;;;;1.10;1.00;;;10.60;99.90;;;;;;4402635;32;20112;-76
2023/04/15 08:08:54;;;;;;;0.85;0.50;;;10.60;99.90;;;;;;4400837;32;20074;-78
2023/04/15 08:11:20;;;;;;;1.25;1.12;;;10.50;99.90;;;;;;4398261;32;20187;-76
2023/04/15 08:13:46;;;;;;;0.57;0.57;;;10.50;99.90;;;;;;4401422;32;20085;-76
2023/04/15 08:16:22;;;;;;;0.98;0.93;;;10.50;99.90;;;;;;4402373;32;20535;-77
2023/04/15 08:18:48;;;;;;;0.50;0.50;;;10.50;99.90;;;;;;4399904;32;20098;-77
2023/04/15 08:21:16;;;;;;;1.12;0.90;;;10.40;99.90;;;;;;4401611;32;20062;-76
2023/04/15 08:23:42;;;;;;;0.98;0.80;;;10.50;99.90;;;;;;4398784;32;20114;-76
2023/04/15 08:26:08;;;;;;;0.40;0.40;;;10.40;99.90;;;;;;4401354;32;20522;-77
2023/04/15 08:28:34;;;;;;;5.68;1.12;;;10.40;99.90;;;;;;4399787;32;20066;-76
2023/04/15 08:31:00;;;;;;;2.10;1.05;;;10.50;99.90;;;;;;4399968;32;20573;-76
2023/04/15 08:33:26;;;;;;;1.87;0.75;;;10.40;99.90;;;;;;4400657;32;20440;-76
2023/04/15 08:35:51;;;;;;;0.60;0.60;;;10.50;99.90;;;;;;4401061;32;20144;-76
2023/04/15 08:38:17;;;;;;;1.65;0.95;;;10.40;99.90;;;;;;4401832;32;20184;-76
2023/04/15 08:40:44;;;;;;;0.68;0.68;;;10.40;99.90;;;;;;4398926;32;20066;-76
2023/04/15 08:43:14;;;;;;;1.10;0.85;;;10.40;99.90;;;;;;4400269;32;20069;-76
2023/04/15 08:45:41;;;;;;;6.03;1.25;;;10.50;99.90;;;;;;4399639;32;20419;-76
2023/04/15 08:48:08;;;;;;;0.95;0.60;;;10.40;99.90;;;;;;4401061;32;20073;-76
2023/04/15 08:50:34;;;;;;;1.40;0.90;;;10.40;99.90;;;;;;4399666;32;20191;-76
2023/04/15 08:53:00;;;;;;;0.70;0.70;;;10.40;99.90;;;;;;4402923;32;20081;-77
2023/04/15 08:55:34;;;;;;;0.88;0.88;;;10.50;99.90;;;;;;4400888;32;20094;-76
2023/04/15 08:58:01;;;;;;;0.60;0.60;;;10.50;99.90;;;;;;4401548;32;20098;-76
2023/04/15 09:00:28;;;;;;;0.50;0.50;;;10.50;99.90;;;;;;4402583;32;20073;-77
2023/04/15 09:02:55;;;;;;;16.50;0.62;;;10.50;99.90;;;;;;4400735;32;20615;-77
2023/04/15 09:05:21;;;;;;;1.02;0.95;;;10.50;99.90;;;;;;4400632;32;20094;-77
2023/04/15 09:07:47;;;;;;;2.30;0.93;;;10.50;99.90;;;;;;4402528;32;20638;-77
2023/04/15 09:10:13;;;;;;;0.70;0.70;;;10.40;99.90;;;;;;4400309;32;20069;-77
2023/04/15 09:12:38;;;;;;;2.05;0.68;;;10.50;99.90;;;;;;4401950;32;20076;-77
2023/04/15 09:15:04;;;;;;;2.28;1.30;;;10.50;99.90;;;;;;4404170;32;20070;-77
2023/04/15 09:17:33;;;;;;;0.62;0.62;;;10.50;99.90;;;;;;4403581;32;20073;-77
2023/04/15 09:20:15;;;;;;;0.60;0.60;;;10.50;99.90;;;;;;4402683;32;20753;-76
2023/04/15 09:22:42;;;;;;;1.52;0.90;;;10.60;99.90;;;;;;4388906;32;20101;-76
2023/04/15 09:25:25;;;;;;;0.93;0.88;;;10.60;99.90;;;;;;4401388;32;20518;-77
2023/04/15 09:27:54;;;;;;;1.27;0.77;;;10.60;99.90;;;;;;4378891;32;20073;-76
2023/04/15 09:30:19;;;;;;;0.62;0.62;;;10.60;99.90;;;;;;4400169;32;20074;-77
2023/04/15 09:32:50;;;;;;;3.60;1.08;;;10.60;99.90;;;;;;4402503;32;20089;-77
2023/04/15 09:35:16;;;;;;;0.82;0.82;;;10.60;99.90;;;;;;4402851;32;20141;-77
2023/04/15 09:37:41;;;;;;;1.20;0.90;;;10.50;99.90;;;;;;4403375;32;20070;-77
2023/04/15 09:40:08;;;;;;;2.05;0.98;;;10.50;99.90;;;;;;4403744;32;20481;-76
2023/04/15 09:42:34;;;;;;;0.50;0.50;;;10.50;99.90;;;;;;4403728;32;20078;-76
2023/04/15 09:45:15;;;;;;;0.57;0.57;;;10.60;99.90;;;;;;4405566;32;20106;-77
2023/04/15 09:47:41;;;;;;;;;;;10.60;99.90;;;;;;4402983;32;20541;-76
2023/04/15 09:50:07;;;;;;;0.80;0.80;;;10.50;99.90;;;;;;4403163;32;19945;-77
2023/04/15 09:52:32;;;;;;;0.93;0.93;;;10.50;99.90;;;;;;4403287;32;20054;-77
2023/04/15 09:54:59;;;;;;;0.82;0.82;;;10.50;99.90;;;;;;4402212;32;20065;-75
2023/04/15 09:57:34;;;;;;;0.70;0.65;;;10.50;99.90;;;;;;4402025;32;20501;-76
2023/04/15 09:59:59;;;;;;;7.68;3.25;;;10.40;99.90;;;;;;4403884;32;20467;-75
2023/04/15 10:02:27;;;;;;;0.60;0.60;;;10.50;99.90;;;;;;4403664;32;20086;-76
2023/04/15 10:04:53;;;;;;;3.25;1.83;;;10.50;99.90;;;;;;4397638;32;20148;-77
2023/04/15 10:07:21;;;;;;;0.50;0.50;;;10.50;99.90;;;;;;4401695;32;20182;-76
2023/04/15 10:09:48;;;;;;;0.75;0.75;;;10.50;99.90;;;;;;4402998;32;20111;-76
2023/04/15 10:12:16;;;;;;;0.73;0.73;;;10.50;99.90;;;;;;4401724;32;20095;-76
2023/04/15 10:14:43;;;;;;;1.20;1.10;;;10.50;99.90;;;;;;4403926;32;20077;-76
2023/04/15 10:17:11;;;;;;;1.23;0.75;;;10.40;99.90;;;;;;4403897;32;20050;-77
2023/04/15 10:19:37;;;;;;;2.17;1.30;;;10.50;99.90;;;;;;4401629;32;20077;-76
2023/04/15 10:22:03;;;;;;;1.42;0.70;;;10.50;99.90;;;;;;4403810;32;20090;-77
2023/04/15 10:24:32;;;;;;;1.45;0.60;;;10.50;99.90;;;;;;4396270;32;20083;-77
2023/04/15 10:26:59;;;;;;;0.68;0.68;;;10.50;99.90;;;;;;4395113;32;20387;-76
2023/04/15 10:29:26;;;;;;;0.62;0.62;;;10.40;99.90;;;;;;4401678;32;20465;-77
2023/04/15 10:31:54;;;;;;;2.78;0.82;;;10.40;99.90;;;;;;4400023;32;20220;-77
2023/04/15 10:34:20;;;;;;;0.77;0.77;;;10.40;99.90;;;;;;4402665;32;20057;-76
2023/04/15 10:36:46;;;;;;;0.40;0.40;;;10.40;99.90;;;;;;4400520;32;20066;-77
2023/04/15 10:39:33;;;;;;;0.68;0.68;;;10.50;99.90;;;;;;4407233;32;20489;-77
2023/04/15 10:42:07;;;;;;;0.80;0.80;;;10.50;99.90;;;;;;4392553;32;20099;-77
2023/04/15 10:44:35;;;;;;;0.45;0.45;;;10.60;99.90;;;;;;4403426;32;20074;-76
2023/04/15 10:47:09;;;;;;;0.85;0.82;;;10.60;99.90;;;;;;4406785;32;20101;-77
2023/04/15 10:49:43;;;;;;;1.90;0.80;;;10.60;99.90;;;;;;4402464;32;20268;-76
2023/04/15 10:52:09;;;;;;;2.22;0.95;;;10.70;99.90;;;;;;4400735;32;20525;-77
2023/04/15 10:54:37;;;;;;;0.60;0.60;;;10.70;99.90;;;;;;4400849;32;20180;-77
2023/04/15 10:57:05;;;;;;;0.70;0.70;;;10.60;99.90;;;;;;4400903;32;20106;-77
2023/04/15 10:59:31;;;;;;;0.68;0.68;;;10.70;99.90;;;;;;4402207;32;20118;-77
2023/04/15 11:02:02;;;;;;;2.17;1.55;;;10.70;99.90;;;;;;4402081;32;20093;-76
2023/04/15 11:04:56;;;;;;;0.65;0.65;;;10.70;99.90;;;;;;4404215;32;20129;-76
2023/04/15 11:07:39;;;;;;;5.32;1.95;;;10.70;99.90;;;;;;4390510;32;20147;-77
2023/04/15 11:10:19;;;;;;;0.57;0.55;;;10.70;99.90;;;;;;4389227;32;20066;-76
2023/04/15 11:12:46;;;;;;;2.28;0.85;;;10.70;99.90;;;;;;4402927;32;20090;-76
2023/04/15 11:15:37;;;;;;;0.80;0.80;;;10.70;99.90;;;;;;4407218;32;20431;-76
2023/04/15 11:18:24;;;;;;;2.70;0.95;;;10.70;99.90;;;;;;4401470;32;20542;-76
2023/04/15 11:20:54;;;;;;;2.20;0.68;;;10.70;99.90;;;;;;4393635;32;20659;-76
2023/04/15 11:23:31;;;;;;;2.08;0.77;;;10.60;99.90;;;;;;4404167;32;20078;-76
2023/04/15 11:25:58;;;;;;;0.98;0.90;;;10.70;99.90;;;;;;4404236;32;20077;-76
2023/04/15 11:28:26;;;;;;;0.62;0.52;;;10.60;99.90;;;;;;4414083;32;20109;-77
2023/04/15 11:30:54;;;;;;;1.17;0.80;;;10.70;99.90;;;;;;4408870;32;20150;-77
2023/04/15 11:33:21;;;;;;;1.65;0.88;;;10.70;99.90;;;;;;4410487;32;20181;-75
2023/04/15 11:35:47;;;;;;;2.17;0.77;;;10.70;99.90;;;;;;4414297;32;20132;-76
2023/04/15 11:38:14;;;;;;;0.40;0.40;;;10.70;99.90;;;;;;4410008;32;20069;-75
2023/04/15 11:40:40;;;;;;;0.70;0.70;;;10.70;99.90;;;;;;4414449;32;20070;-76
2023/04/15 11:43:11;;;;;;;3.45;0.90;;;10.80;99.90;;;;;;4405491;32;84142;-76
2023/04/15 11:45:37;;;;;;;;;;;10.70;99.90;;;;;;4403490;32;20062;-76
2023/04/15 11:48:07;;;;;;;0.82;0.80;;;10.70;99.90;;;;;;4405093;32;20374;-76
2023/04/15 11:50:33;;;;;;;0.50;0.50;;;10.80;99.90;;;;;;4402893;32;20089;-76
2023/04/15 11:53:01;;;;;;;3.62;1.55;;;10.80;99.90;;;;;;4398267;32;20062;-76
2023/04/15 11:55:26;;;;;;;1.40;0.70;;;10.70;99.90;;;;;;4401827;32;20090;-75
2023/04/15 11:58:14;;;;;;;0.43;0.43;;;10.70;99.90;;;;;;4404200;32;20588;-76
2023/04/15 12:00:40;;;;;;;0.70;0.62;;;10.80;99.90;;;;;;4393518;32;20084;-76
2023/04/15 12:03:28;;;;;;;0.60;0.60;;;10.80;99.90;;;;;;4403075;32;20151;-76
2023/04/15 12:06:12;;;;;;;4.32;0.70;;;10.90;99.90;;;;;;4393240;32;20091;-76
2023/04/15 12:08:59;;;;;;;0.57;0.57;;;10.90;99.90;;;;;;4393814;32;20136;-76
2023/04/15 12:11:28;;;;;;;1.37;0.60;;;10.80;99.90;;;;;;4391365;32;20164;-76
2023/04/15 12:13:57;;;;;;;4.07;0.65;;;10.90;99.90;;;;;;4403576;32;20404;-76
2023/04/15 12:16:24;;;;;;;0.60;0.60;;;10.90;99.90;;;;;;4406075;32;20070;-76
2023/04/15 12:18:54;;;;;;;0.60;0.60;;;10.90;99.90;;;;;;4406274;32;20090;-76
2023/04/15 12:21:21;;;;;;;0.62;0.62;;;10.90;99.90;;;;;;4401604;32;20157;-76
2023/04/15 12:23:50;;;;;;;0.80;0.80;;;10.90;99.90;;;;;;4403886;32;20085;-76
2023/04/15 12:26:16;;;;;;;1.92;1.17;;;10.80;99.90;;;;;;4403337;32;20070;-76
2023/04/15 12:28:42;;;;;;;2.05;0.80;;;10.90;99.90;;;;;;4404514;32;20340;-76
2023/04/15 12:31:10;;;;;;;0.40;0.37;;;10.90;99.90;;;;;;4403550;32;20086;-77
2023/04/15 12:33:36;;;;;;;1.00;1.00;;;11.00;99.90;;;;;;4400496;32;20109;-76
2023/04/15 12:36:02;;;;;;;0.93;0.70;;;11.00;99.90;;;;;;4404118;32;20093;-76
2023/04/15 12:38:27;;;;;;;0.60;0.60;;;11.10;99.90;;;;;;4405941;32;20069;-76
2023/04/15 12:40:53;;;;;;;1.27;0.80;;;11.10;99.90;;;;;;4400707;32;21705;-76
2023/04/15 12:43:18;;;;;;;0.70;0.60;;;11.20;99.90;;;;;;4403148;32;20493;-76
2023/04/15 12:45:44;;;;;;;0.75;0.75;;;11.20;99.90;;;;;;4402880;32;20090;-77
2023/04/15 12:48:10;;;;;;;0.75;0.60;;;11.20;99.90;;;;;;4400685;32;20058;-76
2023/04/15 12:50:35;;;;;;;0.75;0.75;;;11.20;99.90;;;;;;4402755;32;20148;-77